Time;durP1;ratioP1;P1;durP2;ratioP2;P2;SDS_P1;SDS_P2;PMS_P1;PMS_P2;Temp;Humidity;BMP_temperature;BMP_pressure;BME280_temperature;BME280_humidity;BME280_pressure;Samples;Min_cycle;Max_cycle;Signal;HPM_P1;HPM_P2
2022/05/29 00:00:51;;;;;;;12.75;5.13;;;9.80;99.90;;;;;;4998034;28;94636;-34
2022/05/29 00:03:17;;;;;;;13.30;5.72;;;9.80;99.90;;;;;;4998393;28;95250;-36
2022/05/29 00:05:45;;;;;;;7.95;4.90;;;9.80;99.90;;;;;;4997920;28;93378;-35
2022/05/29 00:08:14;;;;;;;11.93;5.22;;;9.80;99.90;;;;;;4998616;28;94688;-33
2022/05/29 00:10:42;;;;;;;13.98;5.22;;;9.80;99.90;;;;;;4998028;28;94602;-32
2022/05/29 00:13:08;;;;;;;12.57;5.90;;;9.80;99.90;;;;;;4998672;28;94398;-33
2022/05/29 00:15:34;;;;;;;11.05;4.88;;;9.80;99.90;;;;;;4998312;28;94123;-35
2022/05/29 00:17:59;;;;;;;9.38;4.97;;;9.80;99.90;;;;;;4998150;28;94998;-32
2022/05/29 00:20:25;;;;;;;13.02;5.95;;;9.80;99.90;;;;;;4998696;28;94786;-33
2022/05/29 00:22:51;;;;;;;8.77;4.57;;;9.80;99.90;;;;;;4997980;28;94724;-34
2022/05/29 00:25:17;;;;;;;13.45;5.18;;;9.80;99.90;;;;;;4997878;28;93707;-37
2022/05/29 00:27:43;;;;;;;14.95;5.28;;;9.80;99.90;;;;;;4997852;28;96372;-33
2022/05/29 00:30:11;;;;;;;8.90;4.65;;;9.80;99.90;;;;;;4997935;28;96477;-35
2022/05/29 00:32:37;;;;;;;10.77;4.50;;;9.80;99.90;;;;;;4998092;28;92337;-37
2022/05/29 00:35:02;;;;;;;9.15;5.25;;;9.80;99.90;;;;;;4997618;28;94476;-32
2022/05/29 00:37:31;;;;;;;7.30;4.47;;;9.80;99.90;;;;;;4997489;28;94970;-33
2022/05/29 00:39:56;;;;;;;;;;;9.70;99.90;;;;;;4997902;28;94559;-36
2022/05/29 00:42:25;;;;;;;13.75;5.35;;;9.80;99.90;;;;;;5000118;28;93535;-32
2022/05/29 00:44:51;;;;;;;6.53;4.32;;;9.70;99.90;;;;;;4996967;28;92132;-33
2022/05/29 00:47:19;;;;;;;17.63;6.07;;;9.70;99.90;;;;;;4996687;28;94937;-34
2022/05/29 00:49:47;;;;;;;10.65;5.20;;;9.70;99.90;;;;;;4997198;28;93948;-34
2022/05/29 00:52:13;;;;;;;9.55;5.47;;;9.60;99.90;;;;;;5030906;22;94555;-35
2022/05/29 00:54:53;;;;;;;10.85;5.43;;;9.60;99.90;;;;;;4996812;28;93409;-35
2022/05/29 00:57:28;;;;;;;10.05;4.93;;;9.60;99.90;;;;;;4997373;28;95290;-35
2022/05/29 00:59:58;;;;;;;10.82;5.72;;;9.50;99.90;;;;;;4996821;28;94911;-34
2022/05/29 01:02:24;;;;;;;10.48;5.20;;;9.50;99.90;;;;;;4997076;28;93402;-33
2022/05/29 01:04:49;;;;;;;7.78;5.13;;;9.40;99.90;;;;;;4997691;28;93047;-34
2022/05/29 01:07:18;;;;;;;21.77;6.45;;;9.40;99.90;;;;;;4997199;28;94709;-36
2022/05/29 01:09:48;;;;;;;8.82;4.72;;;9.40;99.90;;;;;;4996788;28;94621;-33
2022/05/29 01:12:47;;;;;;;13.45;5.03;;;9.30;99.90;;;;;;4997209;28;93739;-34
2022/05/29 01:15:41;;;;;;;8.75;4.85;;;9.30;99.90;;;;;;4997031;28;92174;-35
2022/05/29 01:18:26;;;;;;;10.13;5.38;;;9.30;99.90;;;;;;4997039;28;95303;-34
2022/05/29 01:21:10;;;;;;;11.77;5.13;;;9.30;99.90;;;;;;4997409;28;94489;-33
2022/05/29 01:24:00;;;;;;;16.05;6.00;;;9.20;99.90;;;;;;4997112;28;94471;-33
2022/05/29 01:26:45;;;;;;;7.97;4.97;;;9.20;99.90;;;;;;4996915;28;93221;-36
2022/05/29 01:29:18;;;;;;;13.50;5.10;;;9.30;99.90;;;;;;4997296;28;94572;-34
2022/05/29 01:31:56;;;;;;;10.15;4.22;;;9.30;99.90;;;;;;4996668;28;95829;-35
2022/05/29 01:34:43;;;;;;;9.27;5.78;;;9.30;99.90;;;;;;4996879;28;92134;-34
2022/05/29 01:37:37;;;;;;;14.15;5.18;;;9.30;99.90;;;;;;4996908;28;91368;-35
2022/05/29 01:40:14;;;;;;;11.60;6.07;;;9.30;99.90;;;;;;4994437;28;94673;-36
2022/05/29 01:43:00;;;;;;;12.85;6.07;;;9.30;99.90;;;;;;4997048;28;94491;-32
2022/05/29 01:45:53;;;;;;;15.90;6.13;;;9.30;99.90;;;;;;4996451;28;94183;-34
2022/05/29 01:48:26;;;;;;;15.05;5.57;;;9.30;99.90;;;;;;4997109;28;94326;-33
2022/05/29 01:50:59;;;;;;;15.38;4.97;;;9.20;99.90;;;;;;4995779;28;94771;-35
2022/05/29 01:53:32;;;;;;;13.73;5.22;;;9.10;99.90;;;;;;4996957;28;94692;-34
2022/05/29 01:56:04;;;;;;;7.00;4.68;;;9.10;99.90;;;;;;4996836;28;92157;-34
2022/05/29 01:58:35;;;;;;;11.52;5.28;;;9.10;99.90;;;;;;4996504;28;93080;-33
2022/05/29 02:01:03;;;;;;;9.75;4.25;;;9.00;99.90;;;;;;4996247;28;94522;-34
2022/05/29 02:03:34;;;;;;;7.78;4.53;;;9.00;99.90;;;;;;4996396;28;95002;-36
2022/05/29 02:06:08;;;;;;;14.10;4.97;;;9.00;99.90;;;;;;4996472;28;94419;-33
2022/05/29 02:08:46;;;;;;;10.90;5.38;;;9.00;99.90;;;;;;4996395;28;94038;-35
2022/05/29 02:11:22;;;;;;;14.10;5.93;;;9.00;99.90;;;;;;4996369;28;95905;-33
2022/05/29 02:14:13;;;;;;;10.98;5.88;;;9.00;99.90;;;;;;4996196;28;95414;-35
2022/05/29 02:16:47;;;;;;;12.95;5.32;;;9.00;99.90;;;;;;4996902;28;93394;-34
2022/05/29 02:19:22;;;;;;;6.88;4.88;;;9.10;99.90;;;;;;4996294;28;93855;-37
2022/05/29 02:22:23;;;;;;;12.10;5.43;;;9.00;99.90;;;;;;4996887;28;94670;-35
2022/05/29 02:24:52;;;;;;;14.95;6.30;;;9.00;99.90;;;;;;4978303;28;94963;-33
2022/05/29 02:27:27;;;;;;;15.88;5.97;;;9.10;99.90;;;;;;4996453;28;95018;-38
2022/05/29 02:29:55;;;;;;;18.98;5.57;;;9.00;99.90;;;;;;4996482;28;92694;-35
2022/05/29 02:32:21;;;;;;;16.10;5.70;;;9.00;99.90;;;;;;4996350;28;94456;-35
2022/05/29 02:35:17;;;;;;;11.88;5.38;;;9.10;99.90;;;;;;4995885;28;94539;-33
2022/05/29 02:37:48;;;;;;;10.57;5.32;;;9.10;99.90;;;;;;4996032;28;93499;-35
2022/05/29 02:40:30;;;;;;;13.75;5.60;;;9.10;99.90;;;;;;4995930;28;93159;-35
2022/05/29 02:43:20;;;;;;;10.32;5.70;;;9.10;99.90;;;;;;4995185;28;93628;-33
2022/05/29 02:46:10;;;;;;;13.30;5.18;;;9.00;99.90;;;;;;4995492;28;95079;-36
2022/05/29 02:48:54;;;;;;;8.18;5.35;;;9.10;99.90;;;;;;4996302;28;93127;-34
2022/05/29 02:51:46;;;;;;;15.43;5.70;;;9.10;99.90;;;;;;4995071;28;92613;-32
2022/05/29 02:54:19;;;;;;;11.45;5.07;;;9.10;99.90;;;;;;4996524;28;94868;-36
2022/05/29 02:56:45;;;;;;;9.80;5.72;;;9.10;99.90;;;;;;4996288;28;93346;-39
2022/05/29 02:59:11;;;;;;;12.70;5.90;;;9.10;99.90;;;;;;4997095;28;93392;-34
2022/05/29 03:01:48;;;;;;;9.70;5.78;;;9.10;99.90;;;;;;4995498;28;93300;-34
2022/05/29 03:04:33;;;;;;;13.65;6.50;;;9.10;99.90;;;;;;4995430;28;95934;-36
2022/05/29 03:07:33;;;;;;;10.25;4.78;;;9.10;99.90;;;;;;4995944;28;95534;-33
2022/05/29 03:10:19;;;;;;;16.75;5.78;;;9.10;99.90;;;;;;4999937;28;93792;-32
2022/05/29 03:12:56;;;;;;;19.08;5.55;;;9.00;99.90;;;;;;4999111;28;92958;-33
2022/05/29 03:15:46;;;;;;;14.48;5.72;;;9.00;99.90;;;;;;4998561;28;95302;-38
2022/05/29 03:18:20;;;;;;;10.73;5.10;;;9.00;99.90;;;;;;4999151;28;96033;-34
2022/05/29 03:20:59;;;;;;;13.95;5.47;;;9.00;99.90;;;;;;4999576;28;93267;-33
2022/05/29 03:23:39;;;;;;;16.85;5.30;;;9.00;99.90;;;;;;4978430;28;93524;-35
2022/05/29 03:26:13;;;;;;;10.32;5.20;;;9.00;99.90;;;;;;4992171;28;94721;-35
2022/05/29 03:28:44;;;;;;;11.77;4.95;;;9.00;99.90;;;;;;4998435;28;94355;-33
2022/05/29 03:31:14;;;;;;;16.25;6.13;;;9.00;99.90;;;;;;4999345;28;93196;-33
2022/05/29 03:33:40;;;;;;;14.48;5.45;;;9.10;99.90;;;;;;4999168;28;93423;-35
2022/05/29 03:36:09;;;;;;;16.95;6.82;;;9.10;99.90;;;;;;4999058;28;95345;-33
2022/05/29 03:38:34;;;;;;;;;;;9.10;99.90;;;;;;4998413;28;93770;-38
2022/05/29 03:41:11;;;;;;;16.75;6.35;;;9.10;99.90;;;;;;5000494;28;93045;-33
2022/05/29 03:43:37;;;;;;;10.15;5.97;;;9.10;99.90;;;;;;4998960;28;94172;-35
2022/05/29 03:46:03;;;;;;;9.90;5.90;;;9.10;99.90;;;;;;4998455;28;94769;-34
2022/05/29 03:48:30;;;;;;;14.20;6.07;;;9.10;99.90;;;;;;4999057;28;94714;-34
2022/05/29 03:50:56;;;;;;;14.32;6.43;;;9.10;99.90;;;;;;4998179;28;92338;-34
2022/05/29 03:53:21;;;;;;;17.98;6.30;;;9.10;99.90;;;;;;4998134;28;92569;-34
2022/05/29 03:55:47;;;;;;;10.43;6.07;;;9.10;99.90;;;;;;4997817;28;98916;-37
2022/05/29 03:58:12;;;;;;;15.90;6.97;;;9.10;99.90;;;;;;4998165;28;95516;-34
2022/05/29 04:00:38;;;;;;;11.02;5.50;;;9.10;99.90;;;;;;4999244;28;93169;-33
2022/05/29 04:03:03;;;;;;;10.60;5.85;;;9.20;99.90;;;;;;4998056;28;93258;-35
2022/05/29 04:05:29;;;;;;;15.98;5.68;;;9.10;99.90;;;;;;4998198;28;94911;-36
2022/05/29 04:13:32;;;;;;;17.58;5.43;;;9.20;99.90;;;;;;4998549;28;91432;-33
2022/05/29 04:15:57;;;;;;;8.65;4.97;;;9.20;99.90;;;;;;4997617;28;95594;-34
2022/05/29 04:18:23;;;;;;;10.05;5.60;;;9.20;99.90;;;;;;4998179;28;94808;-35
2022/05/29 04:20:52;;;;;;;15.48;5.32;;;9.20;99.90;;;;;;4996674;28;93279;-34
2022/05/29 04:23:18;;;;;;;8.88;5.00;;;9.30;99.90;;;;;;4997965;28;93221;-35
2022/05/29 04:25:44;;;;;;;11.23;5.38;;;9.30;99.90;;;;;;4998206;28;94079;-33
2022/05/29 04:28:10;;;;;;;10.93;5.45;;;9.30;99.90;;;;;;4997765;28;94857;-34
2022/05/29 04:30:35;;;;;;;9.23;4.18;;;9.30;99.90;;;;;;4997606;28;93498;-35
2022/05/29 04:33:01;;;;;;;11.20;5.65;;;9.30;99.90;;;;;;4998580;28;94331;-36
2022/05/29 04:35:29;;;;;;;9.48;5.22;;;9.40;99.90;;;;;;4998199;28;95101;-36
2022/05/29 04:37:54;;;;;;;14.38;5.50;;;9.40;99.90;;;;;;4998124;28;94912;-37
2022/05/29 04:40:20;;;;;;;12.50;5.03;;;9.40;99.90;;;;;;4998169;28;92632;-34
2022/05/29 04:42:46;;;;;;;9.10;4.20;;;9.40;99.90;;;;;;4997378;28;94380;-33
2022/05/29 04:45:11;;;;;;;9.35;4.68;;;9.40;99.90;;;;;;4997449;28;96488;-32
2022/05/29 04:47:37;;;;;;;6.78;4.15;;;9.50;99.90;;;;;;4997498;28;95890;-36
2022/05/29 04:50:03;;;;;;;9.63;4.95;;;9.50;99.90;;;;;;4997713;28;94402;-36
2022/05/29 04:52:29;;;;;;;14.70;5.20;;;9.50;99.90;;;;;;4997580;28;93261;-35
2022/05/29 04:54:55;;;;;;;11.98;4.47;;;9.50;99.90;;;;;;4997063;28;94626;-35
2022/05/29 04:57:20;;;;;;;11.35;4.40;;;9.50;99.90;;;;;;4976660;28;95497;-33
2022/05/29 04:59:46;;;;;;;11.20;5.05;;;9.50;99.90;;;;;;4988132;28;92989;-33
2022/05/29 05:02:12;;;;;;;6.80;5.13;;;9.50;99.90;;;;;;4998159;28;92779;-37
2022/05/29 05:04:38;;;;;;;17.38;4.85;;;9.60;99.90;;;;;;4996893;28;96728;-33
2022/05/29 05:07:04;;;;;;;12.38;5.22;;;9.60;99.90;;;;;;4996789;28;100288;-34
2022/05/29 05:09:30;;;;;;;12.68;4.97;;;9.70;99.90;;;;;;4997338;28;93853;-35
2022/05/29 05:11:56;;;;;;;10.43;4.88;;;9.60;99.90;;;;;;4996794;28;92442;-34
2022/05/29 05:14:24;;;;;;;9.85;5.03;;;9.70;99.90;;;;;;4997017;28;94647;-36
2022/05/29 05:16:49;;;;;;;12.13;4.25;;;9.80;99.90;;;;;;4997360;28;94466;-35
2022/05/29 05:19:16;;;;;;;6.85;3.75;;;9.80;99.90;;;;;;4996999;28;92661;-34
2022/05/29 05:21:42;;;;;;;14.68;4.90;;;9.80;99.90;;;;;;4996968;28;94152;-33
2022/05/29 05:24:08;;;;;;;6.68;3.90;;;9.90;99.90;;;;;;4997393;28;94459;-34
2022/05/29 05:26:35;;;;;;;14.10;4.35;;;9.90;99.90;;;;;;4997320;28;94432;-36
2022/05/29 05:29:01;;;;;;;9.82;4.18;;;9.80;99.90;;;;;;4997459;28;95058;-35
2022/05/29 05:31:26;;;;;;;8.27;3.60;;;9.90;99.90;;;;;;4996982;28;93263;-32
2022/05/29 05:33:52;;;;;;;7.80;3.72;;;9.90;99.90;;;;;;4996207;28;96056;-33
2022/05/29 05:36:18;;;;;;;12.82;4.32;;;9.90;99.90;;;;;;4997095;28;95256;-35
2022/05/29 05:38:45;;;;;;;6.18;3.67;;;9.90;99.90;;;;;;4996609;28;92672;-34
2022/05/29 05:41:12;;;;;;;7.10;3.85;;;9.90;99.90;;;;;;4996899;28;94475;-33
2022/05/29 05:43:39;;;;;;;7.30;2.97;;;9.80;99.90;;;;;;4996821;28;94657;-33
2022/05/29 05:46:13;;;;;;;7.35;4.75;;;9.80;99.90;;;;;;4997108;28;94497;-32
2022/05/29 05:48:39;;;;;;;9.95;4.25;;;9.80;99.90;;;;;;4997397;28;92464;-33
2022/05/29 05:51:06;;;;;;;10.25;4.95;;;9.80;99.90;;;;;;4996909;28;91895;-33
2022/05/29 05:53:33;;;;;;;10.85;4.68;;;9.90;99.90;;;;;;4995954;28;94986;-34
2022/05/29 05:56:03;;;;;;;8.27;4.15;;;10.00;99.90;;;;;;4996333;28;95226;-32
2022/05/29 05:58:28;;;;;;;11.93;3.85;;;10.00;99.90;;;;;;4996809;28;94171;-33
2022/05/29 06:00:54;;;;;;;10.13;4.68;;;10.00;99.90;;;;;;4996427;28;94417;-35
2022/05/29 06:03:20;;;;;;;14.77;4.80;;;10.10;99.90;;;;;;4996150;28;94704;-32
2022/05/29 06:05:48;;;;;;;8.80;3.80;;;10.20;99.90;;;;;;4996615;28;94438;-33
2022/05/29 06:08:14;;;;;;;10.75;3.38;;;10.20;99.90;;;;;;4997800;28;92536;-34
2022/05/29 06:10:39;;;;;;;5.70;3.35;;;10.30;99.90;;;;;;4995773;28;94334;-34
2022/05/29 06:13:07;;;;;;;8.00;4.35;;;10.30;99.90;;;;;;4996395;28;94719;-34
2022/05/29 06:15:33;;;;;;;9.25;3.95;;;10.40;99.90;;;;;;4997096;28;94474;-33
2022/05/29 06:17:59;;;;;;;10.82;3.63;;;10.50;99.90;;;;;;4996698;28;92757;-33
2022/05/29 06:20:25;;;;;;;10.10;4.22;;;10.50;99.90;;;;;;4996983;28;94508;-34
2022/05/29 06:22:51;;;;;;;11.95;4.50;;;10.60;99.90;;;;;;4995118;28;95596;-33
2022/05/29 06:25:17;;;;;;;9.13;3.47;;;10.50;99.90;;;;;;4996391;28;95724;-34
2022/05/29 06:27:44;;;;;;;16.48;3.92;;;10.60;99.90;;;;;;4995998;28;92125;-33
2022/05/29 06:30:12;;;;;;;12.68;4.05;;;10.60;99.90;;;;;;4996146;28;94025;-32
2022/05/29 06:32:39;;;;;;;9.02;3.75;;;10.60;99.90;;;;;;4995859;28;94767;-35
2022/05/29 06:35:07;;;;;;;15.63;4.30;;;10.50;99.90;;;;;;4996042;28;94652;-34
2022/05/29 06:37:33;;;;;;;17.17;5.00;;;10.40;99.90;;;;;;4995864;28;93572;-34
2022/05/29 06:39:58;;;;;;;8.35;3.70;;;10.50;99.90;;;;;;4996021;28;93788;-34
2022/05/29 06:42:25;;;;;;;7.93;3.17;;;10.40;99.90;;;;;;4996396;28;94703;-38
2022/05/29 06:44:50;;;;;;;7.35;3.63;;;10.20;99.90;;;;;;4999203;28;96280;-34
2022/05/29 06:47:17;;;;;;;14.38;4.70;;;10.10;99.90;;;;;;4999047;28;95108;-33
2022/05/29 06:49:42;;;;;;;9.48;3.33;;;10.10;99.90;;;;;;4999661;28;94377;-32
2022/05/29 06:52:10;;;;;;;10.50;3.35;;;10.20;99.90;;;;;;4998589;28;94710;-32
2022/05/29 06:54:36;;;;;;;8.73;3.93;;;10.20;99.90;;;;;;4999194;28;94843;-33
2022/05/29 06:57:04;;;;;;;6.30;3.30;;;10.30;99.90;;;;;;4999887;28;94510;-35
2022/05/29 06:59:30;;;;;;;15.57;4.43;;;10.40;99.90;;;;;;5000063;28;93042;-35
2022/05/29 07:07:25;;;;;;;5.10;2.90;;;10.70;99.90;;;;;;4999742;28;92663;-33
2022/05/29 07:09:50;;;;;;;10.90;4.13;;;10.90;99.90;;;;;;4999251;28;96067;-35
2022/05/29 07:12:24;;;;;;;11.23;3.70;;;11.00;99.90;;;;;;4998689;28;96948;-33
2022/05/29 07:15:01;;;;;;;10.70;3.80;;;11.00;99.90;;;;;;4998811;28;95458;-32
2022/05/29 07:17:27;;;;;;;8.55;3.95;;;11.00;99.90;;;;;;4999657;28;94645;-35
2022/05/29 07:19:53;;;;;;;15.02;4.75;;;11.00;99.90;;;;;;4999060;28;92753;-37
2022/05/29 07:22:19;;;;;;;14.15;4.53;;;11.10;99.90;;;;;;4999145;28;94898;-33
2022/05/29 07:24:45;;;;;;;12.00;3.20;;;11.20;99.90;;;;;;4998816;28;94679;-34
2022/05/29 07:27:11;;;;;;;11.00;3.47;;;11.10;99.90;;;;;;4999842;28;92187;-32
2022/05/29 07:29:37;;;;;;;9.63;3.83;;;11.10;99.90;;;;;;4999445;28;92497;-33
2022/05/29 07:32:03;;;;;;;11.90;3.30;;;11.00;99.90;;;;;;4997259;28;95829;-34
2022/05/29 07:34:30;;;;;;;8.82;3.15;;;11.30;99.90;;;;;;4998797;28;94505;-34
2022/05/29 07:37:11;;;;;;;17.90;4.03;;;11.30;99.90;;;;;;4998199;28;95465;-36
2022/05/29 07:39:40;;;;;;;16.25;4.60;;;11.20;99.90;;;;;;4998703;28;93053;-34
2022/05/29 07:44:51;;;;;;;12.55;4.38;;;11.30;99.90;;;;;;4999211;28;94517;-32
2022/05/29 07:47:17;;;;;;;8.25;3.42;;;11.30;99.90;;;;;;4996514;28;92973;-31
2022/05/29 07:49:43;;;;;;;12.20;3.97;;;11.30;99.90;;;;;;4996686;28;94013;-35
2022/05/29 07:52:09;;;;;;;8.02;3.70;;;11.10;99.90;;;;;;4995535;28;94922;-34
2022/05/29 07:54:34;;;;;;;8.98;3.83;;;11.10;99.90;;;;;;4996022;28;94533;-35
2022/05/29 07:57:00;;;;;;;15.90;4.20;;;11.20;99.90;;;;;;4996187;28;93392;-33
2022/05/29 07:59:25;;;;;;;12.15;3.70;;;11.10;99.90;;;;;;4996541;28;93469;-35
2022/05/29 08:01:51;;;;;;;14.38;4.15;;;11.20;99.90;;;;;;4995836;28;95891;-34
2022/05/29 08:04:17;;;;;;;12.65;3.30;;;11.30;99.90;;;;;;4995416;28;94863;-35
2022/05/29 08:06:42;;;;;;;9.15;3.45;;;11.20;99.90;;;;;;4996477;28;93303;-33
2022/05/29 08:09:09;;;;;;;6.80;4.03;;;11.40;99.90;;;;;;4996402;28;94788;-34
2022/05/29 08:11:34;;;;;;;10.35;3.00;;;11.40;99.90;;;;;;4995486;28;94585;-38
2022/05/29 08:14:04;;;;;;;6.07;2.85;;;11.50;99.90;;;;;;4997125;28;95001;-32
2022/05/29 08:16:29;;;;;;;16.45;4.25;;;11.40;99.90;;;;;;4996400;28;94627;-34
2022/05/29 08:18:55;;;;;;;6.85;3.28;;;11.60;99.90;;;;;;4996101;28;93404;-32
2022/05/29 08:21:20;;;;;;;4.32;2.97;;;11.50;99.90;;;;;;4995803;28;94066;-36
2022/05/29 08:32:07;;;;;;;6.95;2.50;;;11.30;99.90;;;;;;4996581;28;95099;-33
2022/05/29 08:34:33;;;;;;;7.82;2.17;;;11.30;99.90;;;;;;4998703;28;94585;-33
2022/05/29 08:36:58;;;;;;;8.57;2.30;;;11.20;99.90;;;;;;4994888;28;94342;-37
2022/05/29 08:39:24;;;;;;;5.03;2.80;;;11.30;99.90;;;;;;4996712;28;93526;-33
2022/05/29 08:41:53;;;;;;;10.02;3.10;;;11.30;99.90;;;;;;4994662;28;94690;-36
2022/05/29 08:44:40;;;;;;;5.78;2.45;;;11.40;99.90;;;;;;4994932;28;94414;-36
2022/05/29 08:47:05;;;;;;;6.47;2.17;;;11.60;99.90;;;;;;4995396;28;92967;-33
2022/05/29 08:49:38;;;;;;;8.55;2.53;;;11.50;99.90;;;;;;4978214;28;93031;-34
2022/05/29 08:52:18;;;;;;;5.00;2.25;;;11.70;99.90;;;;;;4991721;28;95598;-37
2022/05/29 08:54:53;;;;;;;16.75;2.47;;;11.70;99.90;;;;;;4994461;28;94944;-37
2022/05/29 08:57:46;;;;;;;8.45;2.10;;;11.70;99.90;;;;;;4995434;28;93203;-33
2022/05/29 09:00:24;;;;;;;4.90;2.50;;;11.80;99.90;;;;;;4997698;28;94223;-35
2022/05/29 09:03:01;;;;;;;10.20;2.22;;;11.70;99.90;;;;;;4994828;28;94167;-34
2022/05/29 09:05:35;;;;;;;8.85;3.25;;;11.90;99.90;;;;;;4995067;28;95682;-34
2022/05/29 09:08:13;;;;;;;8.77;2.00;;;12.10;99.90;;;;;;4993530;28;93272;-33
2022/05/29 09:10:42;;;;;;;12.32;3.03;;;12.10;99.90;;;;;;4995209;28;92468;-34
2022/05/29 09:13:25;;;;;;;5.38;2.28;;;12.10;99.90;;;;;;4994676;28;95702;-33
2022/05/29 09:15:56;;;;;;;11.25;2.88;;;12.10;99.90;;;;;;4994520;28;95191;-33
2022/05/29 09:18:43;;;;;;;4.00;2.80;;;11.90;99.90;;;;;;4977360;28;94142;-36
2022/05/29 09:21:15;;;;;;;4.53;2.05;;;11.70;99.90;;;;;;4996334;28;93247;-34
2022/05/29 09:23:56;;;;;;;3.97;1.70;;;11.70;99.90;;;;;;4995521;28;95035;-34
2022/05/29 09:26:22;;;;;;;9.30;1.77;;;11.80;99.90;;;;;;4994374;28;94572;-36
2022/05/29 09:28:48;;;;;;;2.17;1.58;;;11.90;99.90;;;;;;4996856;28;94593;-33
2022/05/29 09:31:20;;;;;;;3.72;1.55;;;11.90;99.90;;;;;;4994986;28;93693;-34
2022/05/29 09:33:46;;;;;;;5.70;1.90;;;12.00;99.90;;;;;;4993605;28;95250;-35
2022/05/29 09:36:12;;;;;;;4.13;2.45;;;11.80;99.90;;;;;;4995191;28;93310;-33
2022/05/29 09:38:56;;;;;;;2.38;1.55;;;11.70;99.90;;;;;;4995040;28;92804;-36
2022/05/29 09:41:45;;;;;;;4.65;2.03;;;11.60;99.90;;;;;;4994732;28;93910;-37
2022/05/29 09:44:15;;;;;;;3.13;1.85;;;11.40;99.90;;;;;;4993916;28;95995;-34
2022/05/29 09:46:43;;;;;;;3.38;1.55;;;11.40;99.90;;;;;;4991252;28;96762;-34
2022/05/29 09:49:41;;;;;;;7.13;1.40;;;11.50;99.90;;;;;;4994159;28;93360;-34
2022/05/29 09:52:19;;;;;;;2.92;1.65;;;11.70;99.90;;;;;;4992785;28;92130;-36
2022/05/29 09:54:55;;;;;;;8.02;2.38;;;11.60;99.90;;;;;;4993289;28;94567;-34
2022/05/29 09:57:30;;;;;;;5.60;1.77;;;11.80;99.90;;;;;;4992090;28;94262;-34
2022/05/29 10:00:02;;;;;;;6.43;1.80;;;11.60;99.90;;;;;;4994351;28;93125;-36
2022/05/29 10:02:34;;;;;;;3.15;1.92;;;11.70;99.90;;;;;;4994863;28;92039;-33
2022/05/29 10:04:59;;;;;;;4.55;2.15;;;11.80;99.90;;;;;;4994529;28;94932;-34
2022/05/29 10:07:44;;;;;;;2.88;2.13;;;11.80;99.90;;;;;;4994526;28;94193;-35
2022/05/29 10:10:35;;;;;;;12.05;2.08;;;11.90;99.90;;;;;;4994442;28;95516;-36
2022/05/29 10:13:02;;;;;;;9.60;2.42;;;11.80;99.90;;;;;;4993501;28;94965;-33
2022/05/29 10:15:27;;;;;;;3.22;2.25;;;11.90;99.90;;;;;;4994244;28;94869;-39
2022/05/29 10:18:17;;;;;;;5.95;1.92;;;12.00;99.90;;;;;;4994470;28;94020;-33
2022/05/29 10:20:44;;;;;;;6.00;1.95;;;12.00;99.90;;;;;;4972880;28;93832;-32
2022/05/29 10:23:35;;;;;;;9.35;2.63;;;12.00;99.90;;;;;;4991580;28;94291;-35
2022/05/29 10:26:29;;;;;;;7.10;2.45;;;12.20;99.90;;;;;;4991436;28;94499;-35
2022/05/29 10:28:55;;;;;;;9.77;2.38;;;12.30;99.90;;;;;;4994273;28;94579;-37
2022/05/29 10:31:27;;;;;;;10.18;2.20;;;12.20;99.90;;;;;;4994793;28;94040;-33
2022/05/29 10:34:15;;;;;;;7.07;2.50;;;12.30;99.90;;;;;;4994252;28;94455;-32
2022/05/29 10:36:41;;;;;;;4.20;1.77;;;12.20;99.90;;;;;;4992921;28;94388;-33
2022/05/29 10:39:28;;;;;;;3.92;2.55;;;12.00;99.90;;;;;;4994090;28;96062;-34
2022/05/29 10:41:55;;;;;;;5.43;1.30;;;11.90;99.90;;;;;;4993875;28;93419;-36
2022/05/29 10:44:42;;;;;;;4.40;2.13;;;11.90;99.90;;;;;;4994091;28;92278;-36
2022/05/29 10:47:20;;;;;;;3.65;2.00;;;11.90;99.90;;;;;;4993014;28;94905;-35
2022/05/29 10:49:52;;;;;;;8.43;2.33;;;11.90;99.90;;;;;;4993298;28;94443;-34
2022/05/29 10:52:25;;;;;;;4.13;2.33;;;11.80;99.90;;;;;;4993711;28;94198;-35
2022/05/29 10:55:17;;;;;;;6.63;1.95;;;11.90;99.90;;;;;;4994703;28;92588;-32
2022/05/29 10:57:52;;;;;;;3.90;1.88;;;12.00;99.90;;;;;;4993200;28;94701;-33
2022/05/29 11:00:34;;;;;;;5.90;2.35;;;12.00;99.90;;;;;;4993913;28;94233;-33
2022/05/29 11:03:23;;;;;;;7.72;2.25;;;12.00;99.90;;;;;;4993177;28;94854;-34
2022/05/29 11:05:49;;;;;;;4.68;2.13;;;12.30;99.90;;;;;;4975924;28;93346;-35
2022/05/29 11:08:49;;;;;;;3.88;2.03;;;12.50;99.90;;;;;;4993686;28;96254;-33
2022/05/29 11:11:22;;;;;;;3.72;1.77;;;12.50;99.90;;;;;;4993714;28;94507;-33
2022/05/29 11:13:59;;;;;;;10.15;3.28;;;12.50;99.90;;;;;;4994068;28;93286;-34
2022/05/29 11:16:45;;;;;;;6.75;1.88;;;12.50;99.90;;;;;;4993592;28;93782;-35
2022/05/29 11:19:45;;;;;;;6.78;2.45;;;12.30;99.90;;;;;;4993880;28;94838;-36
2022/05/29 11:22:26;;;;;;;11.02;2.45;;;12.50;99.90;;;;;;4993575;28;94308;-33
2022/05/29 11:24:55;;;;;;;6.25;2.47;;;12.40;99.90;;;;;;4993760;28;93645;-33
2022/05/29 11:27:26;;;;;;;;;;;12.30;99.90;;;;;;4993914;28;92175;-34
2022/05/29 11:30:16;;;;;;;4.68;2.53;;;12.30;99.90;;;;;;4995508;28;95830;-36
2022/05/29 11:33:20;;;;;;;7.78;2.20;;;12.30;99.90;;;;;;4997096;28;95263;-32
2022/05/29 11:36:01;;;;;;;3.90;1.77;;;12.30;99.90;;;;;;4997041;28;94223;-35
2022/05/29 11:38:55;;;;;;;6.15;2.20;;;12.20;99.90;;;;;;4996988;28;94621;-32
2022/05/29 11:41:59;;;;;;;15.70;2.58;;;12.30;99.90;;;;;;4996398;28;94729;-35
2022/05/29 11:44:58;;;;;;;13.77;2.67;;;12.50;99.90;;;;;;4992614;28;95250;-34
2022/05/29 11:54:01;;;;;;;5.88;2.58;;;12.90;99.90;;;;;;4993873;28;95170;-35
2022/05/29 11:56:47;;;;;;;;;;;12.90;99.90;;;;;;4995880;28;94438;-35
2022/05/29 11:59:37;;;;;;;4.78;2.25;;;13.20;99.90;;;;;;4992278;28;94933;-35
2022/05/29 12:02:31;;;;;;;2.58;1.98;;;13.10;99.90;;;;;;4996226;28;93607;-35
2022/05/29 12:05:16;;;;;;;2.97;1.83;;;12.90;99.90;;;;;;4995397;28;94320;-34
2022/05/29 12:07:47;;;;;;;4.72;2.42;;;13.00;99.90;;;;;;4995463;28;95479;-36
2022/05/29 12:10:22;;;;;;;4.40;2.10;;;12.90;99.90;;;;;;4995288;28;94682;-34
2022/05/29 12:12:57;;;;;;;2.90;1.75;;;12.70;99.90;;;;;;4995448;28;94410;-33
2022/05/29 12:15:23;;;;;;;7.85;2.45;;;12.40;99.90;;;;;;4995494;28;94837;-34
2022/05/29 12:18:18;;;;;;;4.25;2.03;;;12.20;99.90;;;;;;4994966;28;94458;-34
2022/05/29 12:20:44;;;;;;;9.75;2.25;;;12.00;99.90;;;;;;4994697;28;92457;-33
2022/05/29 12:23:25;;;;;;;2.75;1.52;;;12.10;99.90;;;;;;4994380;28;94946;-34
2022/05/29 12:25:58;;;;;;;6.78;1.90;;;12.10;99.90;;;;;;4994350;28;96293;-37
2022/05/29 12:28:36;;;;;;;9.52;2.55;;;12.20;99.90;;;;;;4995491;28;95576;-33
2022/05/29 12:31:05;;;;;;;7.47;1.92;;;12.20;99.90;;;;;;4995764;28;92434;-32
2022/05/29 12:33:30;;;;;;;;;;;12.30;99.90;;;;;;4997370;28;94718;-35
2022/05/29 12:36:15;;;;;;;8.45;2.08;;;12.30;99.90;;;;;;4996690;28;94760;-34
2022/05/29 12:38:54;;;;;;;3.30;2.15;;;12.50;99.90;;;;;;4982413;28;94374;-37
2022/05/29 12:41:49;;;;;;;27.08;22.77;;;12.60;99.90;;;;;;4994366;28;93825;-33
2022/05/29 12:44:27;;;;;;;13.27;4.53;;;12.70;99.90;;;;;;4995774;28;93324;-36
2022/05/29 12:47:09;;;;;;;3.27;2.13;;;12.60;99.90;;;;;;4995398;28;94810;-34
2022/05/29 12:49:35;;;;;;;13.13;2.78;;;12.70;99.90;;;;;;4994604;28;93573;-37
2022/05/29 12:52:28;;;;;;;5.45;2.22;;;12.70;99.90;;;;;;5017612;22;94525;-34
2022/05/29 12:55:18;;;;;;;5.85;1.80;;;12.70;99.90;;;;;;4975201;28;92969;-33
2022/05/29 12:57:58;;;;;;;10.55;3.83;;;12.90;99.90;;;;;;4974601;28;95472;-33
2022/05/29 13:00:58;;;;;;;10.57;2.25;;;12.90;99.90;;;;;;4975499;28;93199;-33
2022/05/29 13:03:27;;;;;;;7.35;2.60;;;13.00;99.90;;;;;;4964002;28;94232;-36
2022/05/29 13:06:23;;;;;;;6.60;2.28;;;13.20;99.90;;;;;;4975102;28;92597;-34
2022/05/29 13:09:17;;;;;;;7.97;2.45;;;13.30;99.90;;;;;;4975252;28;95189;-32
2022/05/29 13:11:50;;;;;;;4.65;2.25;;;13.00;99.90;;;;;;4974964;28;94520;-36
2022/05/29 13:14:19;;;;;;;11.65;2.67;;;12.90;99.90;;;;;;4975403;28;93192;-33
2022/05/29 13:16:45;;;;;;;5.18;2.63;;;12.90;99.90;;;;;;4974461;28;93233;-34
2022/05/29 13:19:21;;;;;;;5.53;2.50;;;12.70;99.90;;;;;;4974803;28;96022;-36
2022/05/29 13:22:07;;;;;;;7.00;2.35;;;12.50;99.90;;;;;;4974708;28;95408;-33
2022/05/29 13:24:42;;;;;;;9.65;3.63;;;12.10;99.90;;;;;;4974626;28;94285;-35
2022/05/29 13:27:14;;;;;;;5.07;2.40;;;11.80;99.90;;;;;;4974389;28;93657;-34
2022/05/29 13:29:46;;;;;;;7.82;2.30;;;11.50;99.90;;;;;;4974350;28;95802;-33
2022/05/29 13:32:14;;;;;;;6.70;2.80;;;11.40;99.90;;;;;;4975107;28;96284;-35
2022/05/29 13:34:45;;;;;;;8.07;2.80;;;11.60;99.90;;;;;;4974954;28;93375;-33
2022/05/29 13:37:49;;;;;;;7.85;2.38;;;11.60;99.90;;;;;;4974783;28;93498;-33
2022/05/29 13:40:21;;;;;;;7.47;2.67;;;11.70;99.90;;;;;;4974807;28;94794;-35
2022/05/29 13:42:52;;;;;;;5.78;2.60;;;11.80;99.90;;;;;;4974391;28;94729;-33
2022/05/29 13:45:24;;;;;;;8.88;2.88;;;11.90;99.90;;;;;;4974677;28;94518;-34
2022/05/29 13:48:01;;;;;;;5.47;1.92;;;12.10;99.90;;;;;;4974756;28;93020;-35